sensor_id;sensor_type;location;lat;lon;timestamp;pressure;altitude;pressure_sealevel;temperature;humidity
56198;BME280;42700;42.524;12.052;2023-05-25T00:02:02;93988.84;;;19.11;100.00
56198;BME280;42700;42.524;12.052;2023-05-25T00:04:29;93915.63;;;19.05;100.00
56198;BME280;42700;42.524;12.052;2023-05-25T00:06:55;93762.44;;;18.96;100.00
56198;BME280;42700;42.524;12.052;2023-05-25T00:09:20;93509.25;;;18.82;100.00
56198;BME280;42700;42.524;12.052;2023-05-25T00:11:46;93739.88;;;18.89;100.00
56198;BME280;42700;42.524;12.052;2023-05-25T00:14:11;93975.91;;;18.95;100.00
56198;BME280;42700;42.524;12.052;2023-05-25T00:16:37;94072.84;;;18.99;100.00
56198;BME280;42700;42.524;12.052;2023-05-25T00:19:04;94161.22;;;19.01;100.00
56198;BME280;42700;42.524;12.052;2023-05-25T00:21:31;94274.31;;;19.04;100.00
56198;BME280;42700;42.524;12.052;2023-05-25T00:23:59;94341.22;;;19.06;100.00
56198;BME280;42700;42.524;12.052;2023-05-25T00:26:25;94418.88;;;19.07;100.00
56198;BME280;42700;42.524;12.052;2023-05-25T00:28:50;94520.44;;;19.10;100.00
56198;BME280;42700;42.524;12.052;2023-05-25T00:31:15;94542.75;;;19.11;100.00
56198;BME280;42700;42.524;12.052;2023-05-25T00:33:41;94466.50;;;19.07;100.00
56198;BME280;42700;42.524;12.052;2023-05-25T00:36:07;94559.97;;;19.10;100.00
56198;BME280;42700;42.524;12.052;2023-05-25T00:38:33;94634.19;;;19.11;100.00
56198;BME280;42700;42.524;12.052;2023-05-25T00:40:58;94645.72;;;19.11;100.00
56198;BME280;42700;42.524;12.052;2023-05-25T00:43:24;94509.84;;;19.05;100.00
56198;BME280;42700;42.524;12.052;2023-05-25T00:45:49;94472.50;;;19.04;100.00
56198;BME280;42700;42.524;12.052;2023-05-25T00:48:17;94339.91;;;18.94;100.00
56198;BME280;42700;42.524;12.052;2023-05-25T00:50:43;94356.03;;;18.94;100.00
56198;BME280;42700;42.524;12.052;2023-05-25T00:53:10;94378.34;;;18.95;100.00
56198;BME280;42700;42.524;12.052;2023-05-25T00:55:48;94350.19;;;18.92;100.00
56198;BME280;42700;42.524;12.052;2023-05-25T00:58:15;94371.38;;;18.94;100.00
56198;BME280;42700;42.524;12.052;2023-05-25T01:00:42;94429.09;;;18.96;100.00
56198;BME280;42700;42.524;12.052;2023-05-25T01:03:11;94366.78;;;18.94;100.00
56198;BME280;42700;42.524;12.052;2023-05-25T01:05:37;94398.28;;;18.94;100.00
56198;BME280;42700;42.524;12.052;2023-05-25T01:08:02;94398.28;;;18.94;100.00
56198;BME280;42700;42.524;12.052;2023-05-25T01:10:30;94401.25;;;18.92;100.00
56198;BME280;42700;42.524;12.052;2023-05-25T01:12:57;94406.66;;;18.92;100.00
56198;BME280;42700;42.524;12.052;2023-05-25T01:15:23;94405.03;;;18.91;100.00
56198;BME280;42700;42.524;12.052;2023-05-25T01:17:49;94396.50;;;18.89;100.00
56198;BME280;42700;42.524;12.052;2023-05-25T01:20:18;94407.56;;;18.88;100.00
56198;BME280;42700;42.524;12.052;2023-05-25T01:22:53;94421.78;;;18.88;100.00
56198;BME280;42700;42.524;12.052;2023-05-25T01:25:29;94397.94;;;18.87;100.00
56198;BME280;42700;42.524;12.052;2023-05-25T01:27:59;94390.19;;;18.85;100.00
56198;BME280;42700;42.524;12.052;2023-05-25T01:30:28;94317.69;;;18.80;100.00
56198;BME280;42700;42.524;12.052;2023-05-25T01:32:55;94275.34;;;18.77;100.00
56198;BME280;42700;42.524;12.052;2023-05-25T01:35:20;94165.31;;;18.72;100.00
56198;BME280;42700;42.524;12.052;2023-05-25T01:37:47;94114.88;;;18.69;100.00
56198;BME280;42700;42.524;12.052;2023-05-25T01:40:14;94052.09;;;18.65;100.00
56198;BME280;42700;42.524;12.052;2023-05-25T01:42:39;93880.63;;;18.58;100.00
56198;BME280;42700;42.524;12.052;2023-05-25T01:45:05;93769.09;;;18.52;100.00
56198;BME280;42700;42.524;12.052;2023-05-25T01:47:35;93667.22;;;18.47;100.00
56198;BME280;42700;42.524;12.052;2023-05-25T01:50:05;93679.88;;;18.46;100.00
56198;BME280;42700;42.524;12.052;2023-05-25T01:52:34;93619.88;;;18.42;100.00
56198;BME280;42700;42.524;12.052;2023-05-25T01:55:07;93536.00;;;18.36;100.00
56198;BME280;42700;42.524;12.052;2023-05-25T01:57:36;93651.94;;;18.38;100.00
56198;BME280;42700;42.524;12.052;2023-05-25T02:00:03;93676.41;;;18.37;100.00
56198;BME280;42700;42.524;12.052;2023-05-25T02:02:30;93641.06;;;18.35;100.00
56198;BME280;42700;42.524;12.052;2023-05-25T02:04:55;93662.06;;;18.33;100.00
56198;BME280;42700;42.524;12.052;2023-05-25T02:07:21;93765.34;;;18.35;100.00
56198;BME280;42700;42.524;12.052;2023-05-25T02:09:47;93798.38;;;18.36;100.00
56198;BME280;42700;42.524;12.052;2023-05-25T02:12:13;93800.63;;;18.34;100.00
56198;BME280;42700;42.524;12.052;2023-05-25T02:14:38;93891.25;;;18.37;100.00
56198;BME280;42700;42.524;12.052;2023-05-25T02:17:03;93828.56;;;18.33;100.00
56198;BME280;42700;42.524;12.052;2023-05-25T02:19:29;93939.13;;;18.35;100.00
56198;BME280;42700;42.524;12.052;2023-05-25T02:21:54;93848.00;;;18.30;100.00
56198;BME280;42700;42.524;12.052;2023-05-25T02:24:21;93926.34;;;18.32;100.00
56198;BME280;42700;42.524;12.052;2023-05-25T02:26:49;93859.06;;;18.28;100.00
56198;BME280;42700;42.524;12.052;2023-05-25T02:29:15;93782.13;;;18.23;100.00
56198;BME280;42700;42.524;12.052;2023-05-25T02:31:40;93854.63;;;18.23;100.00
56198;BME280;42700;42.524;12.052;2023-05-25T02:34:06;93900.28;;;18.23;100.00
56198;BME280;42700;42.524;12.052;2023-05-25T02:36:31;93890.66;;;18.22;100.00
56198;BME280;42700;42.524;12.052;2023-05-25T02:38:58;93943.72;;;18.25;100.00
56198;BME280;42700;42.524;12.052;2023-05-25T02:41:24;93821.50;;;18.19;100.00
56198;BME280;42700;42.524;12.052;2023-05-25T02:43:50;93764.66;;;18.17;100.00
56198;BME280;42700;42.524;12.052;2023-05-25T02:46:16;93770.00;;;18.17;100.00
56198;BME280;42700;42.524;12.052;2023-05-25T02:48:41;93622.53;;;18.12;100.00
56198;BME280;42700;42.524;12.052;2023-05-25T02:51:07;93647.81;;;18.11;100.00
56198;BME280;42700;42.524;12.052;2023-05-25T02:53:33;93693.13;;;18.13;100.00
56198;BME280;42700;42.524;12.052;2023-05-25T02:55:58;93709.53;;;18.11;100.00
56198;BME280;42700;42.524;12.052;2023-05-25T02:58:26;93737.94;;;18.12;100.00
56198;BME280;42700;42.524;12.052;2023-05-25T03:00:52;93905.81;;;18.18;100.00
56198;BME280;42700;42.524;12.052;2023-05-25T03:03:18;93993.78;;;18.21;100.00
56198;BME280;42700;42.524;12.052;2023-05-25T03:05:44;94036.44;;;18.23;100.00
56198;BME280;42700;42.524;12.052;2023-05-25T03:08:10;93913.41;;;18.16;100.00
56198;BME280;42700;42.524;12.052;2023-05-25T03:10:35;93790.72;;;18.08;100.00
56198;BME280;42700;42.524;12.052;2023-05-25T03:13:01;93820.25;;;18.08;100.00
56198;BME280;42700;42.524;12.052;2023-05-25T03:15:26;93722.69;;;18.04;100.00
56198;BME280;42700;42.524;12.052;2023-05-25T03:17:51;93882.44;;;18.10;100.00
56198;BME280;42700;42.524;12.052;2023-05-25T03:20:18;93994.25;;;18.15;100.00
56198;BME280;42700;42.524;12.052;2023-05-25T03:22:45;94010.06;;;18.16;100.00
56198;BME280;42700;42.524;12.052;2023-05-25T03:25:10;94040.38;;;18.17;100.00
56198;BME280;42700;42.524;12.052;2023-05-25T03:27:37;94047.63;;;18.16;100.00
56198;BME280;42700;42.524;12.052;2023-05-25T03:30:03;94099.94;;;18.19;100.00
56198;BME280;42700;42.524;12.052;2023-05-25T03:32:29;94093.75;;;18.18;100.00
56198;BME280;42700;42.524;12.052;2023-05-25T03:34:54;94162.47;;;18.19;100.00
56198;BME280;42700;42.524;12.052;2023-05-25T03:37:20;94151.72;;;18.19;100.00
56198;BME280;42700;42.524;12.052;2023-05-25T03:39:45;94155.50;;;18.18;100.00
56198;BME280;42700;42.524;12.052;2023-05-25T03:42:11;94220.41;;;18.20;100.00
56198;BME280;42700;42.524;12.052;2023-05-25T03:44:38;94305.72;;;18.23;100.00
56198;BME280;42700;42.524;12.052;2023-05-25T03:47:03;94265.75;;;18.22;100.00
56198;BME280;42700;42.524;12.052;2023-05-25T03:49:29;94292.31;;;18.23;100.00
56198;BME280;42700;42.524;12.052;2023-05-25T03:51:56;94255.31;;;18.20;100.00
56198;BME280;42700;42.524;12.052;2023-05-25T03:54:24;94300.97;;;18.20;100.00
56198;BME280;42700;42.524;12.052;2023-05-25T03:56:50;94342.53;;;18.23;100.00
56198;BME280;42700;42.524;12.052;2023-05-25T03:59:15;94326.75;;;18.21;100.00
56198;BME280;42700;42.524;12.052;2023-05-25T04:01:41;94300.19;;;18.20;100.00
56198;BME280;42700;42.524;12.052;2023-05-25T04:04:06;94311.72;;;18.20;100.00
56198;BME280;42700;42.524;12.052;2023-05-25T04:06:31;94459.31;;;18.25;100.00
56198;BME280;42700;42.524;12.052;2023-05-25T04:08:58;94545.44;;;18.29;100.00
56198;BME280;42700;42.524;12.052;2023-05-25T04:11:23;94604.72;;;18.33;100.00
56198;BME280;42700;42.524;12.052;2023-05-25T04:13:50;94685.47;;;18.36;100.00
56198;BME280;42700;42.524;12.052;2023-05-25T04:16:15;94790.97;;;18.42;100.00
56198;BME280;42700;42.524;12.052;2023-05-25T04:18:41;94906.38;;;18.47;100.00
56198;BME280;42700;42.524;12.052;2023-05-25T04:21:06;94916.31;;;18.47;100.00
56198;BME280;42700;42.524;12.052;2023-05-25T04:23:31;95018.31;;;18.52;100.00
56198;BME280;42700;42.524;12.052;2023-05-25T04:25:58;95119.56;;;18.56;100.00
56198;BME280;42700;42.524;12.052;2023-05-25T04:28:24;95201.22;;;18.60;100.00
56198;BME280;42700;42.524;12.052;2023-05-25T04:30:49;95310.25;;;18.67;100.00
56198;BME280;42700;42.524;12.052;2023-05-25T04:33:15;95474.13;;;18.77;100.00
56198;BME280;42700;42.524;12.052;2023-05-25T04:35:42;95619.03;;;18.84;100.00
56198;BME280;42700;42.524;12.052;2023-05-25T04:38:07;95809.06;;;18.93;100.00
56198;BME280;42700;42.524;12.052;2023-05-25T04:40:36;95938.41;;;19.02;100.00
56198;BME280;42700;42.524;12.052;2023-05-25T04:43:02;96067.75;;;19.11;100.00
56198;BME280;42700;42.524;12.052;2023-05-25T04:45:29;96183.97;;;19.18;100.00
56198;BME280;42700;42.524;12.052;2023-05-25T04:47:57;96269.00;;;19.24;100.00
56198;BME280;42700;42.524;12.052;2023-05-25T04:50:25;96425.13;;;19.34;100.00
56198;BME280;42700;42.524;12.052;2023-05-25T04:52:52;96588.28;;;19.46;100.00
56198;BME280;42700;42.524;12.052;2023-05-25T04:55:17;96800.00;;;19.57;100.00
56198;BME280;42700;42.524;12.052;2023-05-25T04:57:42;96960.59;;;19.68;100.00
56198;BME280;42700;42.524;12.052;2023-05-25T05:00:08;96948.25;;;19.72;100.00
56198;BME280;42700;42.524;12.052;2023-05-25T05:02:35;97041.28;;;19.80;100.00
56198;BME280;42700;42.524;12.052;2023-05-25T05:05:01;97128.94;;;19.88;100.00
56198;BME280;42700;42.524;12.052;2023-05-25T05:07:26;97164.03;;;19.93;100.00
56198;BME280;42700;42.524;12.052;2023-05-25T05:09:53;97392.50;;;20.08;100.00
56198;BME280;42700;42.524;12.052;2023-05-25T05:12:18;97492.63;;;20.17;100.00
56198;BME280;42700;42.524;12.052;2023-05-25T05:14:44;97666.50;;;20.31;100.00
56198;BME280;42700;42.524;12.052;2023-05-25T05:17:09;97790.16;;;20.39;100.00
56198;BME280;42700;42.524;12.052;2023-05-25T05:19:36;98021.41;;;20.56;100.00
56198;BME280;42700;42.524;12.052;2023-05-25T05:22:01;98151.78;;;20.68;100.00
56198;BME280;42700;42.524;12.052;2023-05-25T05:24:27;98085.50;;;20.72;100.00
56198;BME280;42700;42.524;12.052;2023-05-25T05:26:52;98361.16;;;20.88;100.00
56198;BME280;42700;42.524;12.052;2023-05-25T05:29:18;98499.72;;;21.00;100.00
56198;BME280;42700;42.524;12.052;2023-05-25T05:31:44;98770.84;;;21.17;100.00
56198;BME280;42700;42.524;12.052;2023-05-25T05:34:10;98836.00;;;21.28;100.00
56198;BME280;42700;42.524;12.052;2023-05-25T05:36:35;98935.69;;;21.36;100.00
56198;BME280;42700;42.524;12.052;2023-05-25T05:39:01;99017.94;;;21.47;100.00
56198;BME280;42700;42.524;12.052;2023-05-25T05:41:27;99227.44;;;21.63;100.00
56198;BME280;42700;42.524;12.052;2023-05-25T05:43:53;99357.59;;;21.73;100.00
56198;BME280;42700;42.524;12.052;2023-05-25T05:46:19;99508.19;;;21.86;100.00
56198;BME280;42700;42.524;12.052;2023-05-25T05:48:44;99863.19;;;22.08;100.00
56198;BME280;42700;42.524;12.052;2023-05-25T05:51:10;100128.50;;;22.28;100.00
56198;BME280;42700;42.524;12.052;2023-05-25T05:53:35;100084.44;;;22.34;100.00
56198;BME280;42700;42.524;12.052;2023-05-25T05:56:01;100034.31;;;22.38;100.00
56198;BME280;42700;42.524;12.052;2023-05-25T05:58:27;100426.69;;;22.61;100.00
56198;BME280;42700;42.524;12.052;2023-05-25T06:00:53;99587.56;;;22.40;100.00
56198;BME280;42700;42.524;12.052;2023-05-25T06:03:23;100404.72;;;22.71;100.00
56198;BME280;42700;42.524;12.052;2023-05-25T06:05:48;100074.91;;;22.66;100.00
56198;BME280;42700;42.524;12.052;2023-05-25T06:08:14;100580.03;;;22.92;100.00
56198;BME280;42700;42.524;12.052;2023-05-25T06:10:40;100570.19;;;23.06;100.00
56198;BME280;42700;42.524;12.052;2023-05-25T06:13:06;100864.25;;;23.25;100.00
56198;BME280;42700;42.524;12.052;2023-05-25T06:15:32;98594.72;;;22.50;100.00
56198;BME280;42700;42.524;12.052;2023-05-25T06:17:57;99769.00;;;22.93;100.00
56198;BME280;42700;42.524;12.052;2023-05-25T06:20:22;97632.13;;;22.13;100.00
56198;BME280;42700;42.524;12.052;2023-05-25T06:22:48;99144.53;;;22.72;100.00
56198;BME280;42700;42.524;12.052;2023-05-25T06:25:13;99390.63;;;22.87;100.00
56198;BME280;42700;42.524;12.052;2023-05-25T06:27:40;100914.88;;;23.48;100.00
56198;BME280;42700;42.524;12.052;2023-05-25T06:30:05;100950.44;;;23.53;100.00
56198;BME280;42700;42.524;12.052;2023-05-25T06:32:37;98764.38;;;22.80;100.00
56198;BME280;42700;42.524;12.052;2023-05-25T06:35:03;100811.09;;;23.54;100.00
56198;BME280;42700;42.524;12.052;2023-05-25T06:37:29;100753.78;;;23.72;100.00
56198;BME280;42700;42.524;12.052;2023-05-25T06:39:59;100577.78;;;23.62;100.00
56198;BME280;42700;42.524;12.052;2023-05-25T06:42:26;101065.38;;;23.83;100.00
56198;BME280;42700;42.524;12.052;2023-05-25T06:44:51;102103.53;;;24.30;100.00
56198;BME280;42700;42.524;12.052;2023-05-25T06:47:17;102366.66;;;24.51;100.00
56198;BME280;42700;42.524;12.052;2023-05-25T06:49:42;101980.34;;;24.47;100.00
56198;BME280;42700;42.524;12.052;2023-05-25T06:52:08;101929.06;;;24.53;100.00
56198;BME280;42700;42.524;12.052;2023-05-25T06:54:33;100352.13;;;24.02;100.00
56198;BME280;42700;42.524;12.052;2023-05-25T06:56:59;101774.22;;;24.53;100.00
56198;BME280;42700;42.524;12.052;2023-05-25T06:59:25;102271.94;;;24.74;100.00
56198;BME280;42700;42.524;12.052;2023-05-25T07:01:50;100769.53;;;24.28;100.00
56198;BME280;42700;42.524;12.052;2023-05-25T07:04:16;101400.53;;;24.50;100.00
56198;BME280;42700;42.524;12.052;2023-05-25T07:06:42;100254.25;;;24.10;100.00
56198;BME280;42700;42.524;12.052;2023-05-25T07:09:07;99609.97;;;23.86;100.00
56198;BME280;42700;42.524;12.052;2023-05-25T07:11:33;100556.22;;;24.19;100.00
56198;BME280;42700;42.524;12.052;2023-05-25T07:13:58;101607.34;;;24.55;100.00
56198;BME280;42700;42.524;12.052;2023-05-25T07:16:24;103011.47;;;25.12;100.00
56198;BME280;42700;42.524;12.052;2023-05-25T07:18:50;102998.31;;;25.27;100.00
56198;BME280;42700;42.524;12.052;2023-05-25T07:21:15;102996.44;;;25.37;100.00
56198;BME280;42700;42.524;12.052;2023-05-25T07:23:41;103223.47;;;25.44;100.00
56198;BME280;42700;42.524;12.052;2023-05-25T07:26:07;103078.34;;;25.44;100.00
56198;BME280;42700;42.524;12.052;2023-05-25T07:28:32;102771.75;;;25.34;100.00
56198;BME280;42700;42.524;12.052;2023-05-25T07:30:58;102887.44;;;25.38;100.00
56198;BME280;42700;42.524;12.052;2023-05-25T07:33:23;104409.78;;;26.00;100.00
56198;BME280;42700;42.524;12.052;2023-05-25T07:35:49;102868.06;;;25.51;100.00
56198;BME280;42700;42.524;12.052;2023-05-25T07:38:15;103838.38;;;25.79;100.00
56198;BME280;42700;42.524;12.052;2023-05-25T07:40:44;103420.38;;;25.64;100.00
56198;BME280;42700;42.524;12.052;2023-05-25T07:43:11;102301.25;;;25.33;100.00
56198;BME280;42700;42.524;12.052;2023-05-25T07:45:37;101784.72;;;25.13;100.00
56198;BME280;42700;42.524;12.052;2023-05-25T07:48:02;102262.63;;;25.29;100.00
56198;BME280;42700;42.524;12.052;2023-05-25T07:50:31;103476.84;;;25.72;100.00
56198;BME280;42700;42.524;12.052;2023-05-25T07:52:56;103452.81;;;25.77;100.00
56198;BME280;42700;42.524;12.052;2023-05-25T07:55:24;105216.44;;;26.42;100.00
56198;BME280;42700;42.524;12.052;2023-05-25T07:57:50;104932.03;;;26.40;100.00
56198;BME280;42700;42.524;12.052;2023-05-25T08:00:16;104600.31;;;26.27;100.00
56198;BME280;42700;42.524;12.052;2023-05-25T08:02:42;102230.88;;;25.46;100.00
56198;BME280;42700;42.524;12.052;2023-05-25T08:05:07;102733.16;;;25.67;100.00
56198;BME280;42700;42.524;12.052;2023-05-25T08:07:34;104805.31;;;26.32;100.00
56198;BME280;42700;42.524;12.052;2023-05-25T08:09:59;105563.25;;;26.64;100.00
56198;BME280;42700;42.524;12.052;2023-05-25T08:12:25;105489.41;;;26.67;100.00
56198;BME280;42700;42.524;12.052;2023-05-25T08:14:50;105320.47;;;26.64;100.00
56198;BME280;42700;42.524;12.052;2023-05-25T08:17:16;105058.09;;;26.58;100.00
56198;BME280;42700;42.524;12.052;2023-05-25T08:19:41;105993.19;;;26.86;100.00
56198;BME280;42700;42.524;12.052;2023-05-25T08:22:07;107183.00;;;27.46;100.00
56198;BME280;42700;42.524;12.052;2023-05-25T08:24:32;104963.31;;;26.74;100.00
56198;BME280;42700;42.524;12.052;2023-05-25T08:26:58;104535.19;;;26.60;100.00
56198;BME280;42700;42.524;12.052;2023-05-25T08:29:25;107051.97;;;27.42;100.00
56198;BME280;42700;42.524;12.052;2023-05-25T08:31:50;105527.66;;;26.96;100.00
56198;BME280;42700;42.524;12.052;2023-05-25T08:34:16;108063.84;;;27.84;100.00
56198;BME280;42700;42.524;12.052;2023-05-25T08:36:41;108221.28;;;27.97;100.00
56198;BME280;42700;42.524;12.052;2023-05-25T08:39:07;105706.09;;;27.10;100.00
56198;BME280;42700;42.524;12.052;2023-05-25T08:41:34;107886.25;;;27.79;100.00
56198;BME280;42700;42.524;12.052;2023-05-25T08:44:00;106266.34;;;27.35;100.00
56198;BME280;42700;42.524;12.052;2023-05-25T08:46:30;107569.00;;;27.80;100.00
56198;BME280;42700;42.524;12.052;2023-05-25T08:49:03;108736.06;;;28.24;100.00
56198;BME280;42700;42.524;12.052;2023-05-25T08:51:31;109779.81;;;28.69;100.00
56198;BME280;42700;42.524;12.052;2023-05-25T08:54:03;106693.97;;;27.63;100.00
56198;BME280;42700;42.524;12.052;2023-05-25T08:56:30;108916.38;;;28.45;100.00
56198;BME280;42700;42.524;12.052;2023-05-25T08:59:45;109567.91;;;28.73;100.00
56198;BME280;42700;42.524;12.052;2023-05-25T09:01:50;107999.63;;;28.30;100.00
56198;BME280;42700;42.524;12.052;2023-05-25T09:04:18;110689.91;;;29.15;100.00
56198;BME280;42700;42.524;12.052;2023-05-25T09:06:45;109092.97;;;28.77;100.00
56198;BME280;42700;42.524;12.052;2023-05-25T09:09:12;110750.34;;;29.27;100.00
56198;BME280;42700;42.524;12.052;2023-05-25T09:11:40;109557.69;;;28.95;100.00
56198;BME280;42700;42.524;12.052;2023-05-25T09:14:07;110560.19;;;29.29;100.00
56198;BME280;42700;42.524;12.052;2023-05-25T09:16:33;110112.25;;;29.17;100.00
56198;BME280;42700;42.524;12.052;2023-05-25T09:19:01;112284.81;;;29.87;100.00
56198;BME280;42700;42.524;12.052;2023-05-25T09:21:26;111258.22;;;29.55;100.00
56198;BME280;42700;42.524;12.052;2023-05-25T09:23:52;110258.50;;;29.25;100.00
56198;BME280;42700;42.524;12.052;2023-05-25T09:26:17;110884.09;;;29.53;100.00
56198;BME280;42700;42.524;12.052;2023-05-25T09:28:46;111517.56;;;29.79;100.00
56198;BME280;42700;42.524;12.052;2023-05-25T09:31:13;109638.84;;;29.13;100.00
56198;BME280;42700;42.524;12.052;2023-05-25T09:33:39;108376.28;;;28.73;100.00
56198;BME280;42700;42.524;12.052;2023-05-25T09:36:05;110585.91;;;29.57;100.00
56198;BME280;42700;42.524;12.052;2023-05-25T09:38:31;112375.28;;;30.13;100.00
56198;BME280;42700;42.524;12.052;2023-05-25T09:40:56;110576.81;;;29.72;100.00
56198;BME280;42700;42.524;12.052;2023-05-25T09:43:22;111483.94;;;29.92;100.00
56198;BME280;42700;42.524;12.052;2023-05-25T09:45:47;111039.84;;;29.76;100.00
56198;BME280;42700;42.524;12.052;2023-05-25T09:48:13;109846.06;;;29.54;100.00
56198;BME280;42700;42.524;12.052;2023-05-25T09:50:38;111679.03;;;29.98;100.00
56198;BME280;42700;42.524;12.052;2023-05-25T09:53:04;112236.53;;;30.30;100.00
56198;BME280;42700;42.524;12.052;2023-05-25T09:55:31;109070.13;;;29.33;100.00
56198;BME280;42700;42.524;12.052;2023-05-25T09:57:56;108969.31;;;29.47;100.00
56198;BME280;42700;42.524;12.052;2023-05-25T10:00:22;108247.13;;;29.20;100.00
56198;BME280;42700;42.524;12.052;2023-05-25T10:02:48;111386.47;;;30.28;100.00
56198;BME280;42700;42.524;12.052;2023-05-25T10:05:14;112262.28;;;30.69;100.00
56198;BME280;42700;42.524;12.052;2023-05-25T10:07:40;110907.69;;;30.56;100.00
56198;BME280;42700;42.524;12.052;2023-05-25T10:10:09;108831.34;;;29.84;100.00
56198;BME280;42700;42.524;12.052;2023-05-25T10:12:37;107518.81;;;29.68;100.00
56198;BME280;42700;42.524;12.052;2023-05-25T10:15:05;109044.50;;;30.24;100.00
56198;BME280;42700;42.524;12.052;2023-05-25T10:17:32;110280.03;;;30.77;100.00
56198;BME280;42700;42.524;12.052;2023-05-25T10:19:59;110379.84;;;30.86;100.00
56198;BME280;42700;42.524;12.052;2023-05-25T10:22:32;110219.53;;;30.83;100.00
56198;BME280;42700;42.524;12.052;2023-05-25T10:25:13;111390.44;;;31.41;100.00
56198;BME280;42700;42.524;12.052;2023-05-25T10:27:41;110840.94;;;31.29;100.00
56198;BME280;42700;42.524;12.052;2023-05-25T10:30:08;111882.00;;;31.88;100.00
56198;BME280;42700;42.524;12.052;2023-05-25T10:32:35;110354.91;;;31.25;100.00
56198;BME280;42700;42.524;12.052;2023-05-25T10:35:01;114289.50;;;32.08;100.00
56198;BME280;42700;42.524;12.052;2023-05-25T10:37:27;115163.28;;;31.89;100.00
56198;BME280;42700;42.524;12.052;2023-05-25T10:39:54;110633.75;;;30.73;100.00
56198;BME280;42700;42.524;12.052;2023-05-25T10:42:21;111728.06;;;31.39;100.00
56198;BME280;42700;42.524;12.052;2023-05-25T10:44:46;110694.13;;;31.49;100.00
56198;BME280;42700;42.524;12.052;2023-05-25T10:47:12;109338.94;;;31.27;100.00
56198;BME280;42700;42.524;12.052;2023-05-25T10:49:57;108392.97;;;31.26;100.00
56198;BME280;42700;42.524;12.052;2023-05-25T10:52:29;106980.63;;;30.82;100.00
56198;BME280;42700;42.524;12.052;2023-05-25T10:55:00;108479.50;;;31.41;100.00
56198;BME280;42700;42.524;12.052;2023-05-25T10:57:26;109844.06;;;31.88;100.00
56198;BME280;42700;42.524;12.052;2023-05-25T11:00:05;109531.03;;;31.91;100.00
56198;BME280;42700;42.524;12.052;2023-05-25T11:02:47;106644.94;;;31.05;100.00
56198;BME280;42700;42.524;12.052;2023-05-25T11:07:52;107823.47;;;30.29;100.00
56198;BME280;42700;42.524;12.052;2023-05-25T11:10:31;108405.38;;;30.06;100.00
56198;BME280;42700;42.524;12.052;2023-05-25T11:13:45;108856.28;;;29.72;100.00
56198;BME280;42700;42.524;12.052;2023-05-25T11:18:36;108416.50;;;29.05;100.00
56198;BME280;42700;42.524;12.052;2023-05-25T11:23:59;106910.28;;;28.92;100.00
56198;BME280;42700;42.524;12.052;2023-05-25T11:26:33;106174.09;;;28.84;100.00
56198;BME280;42700;42.524;12.052;2023-05-25T11:28:59;105426.34;;;28.50;100.00
56198;BME280;42700;42.524;12.052;2023-05-25T11:31:32;106175.53;;;28.75;100.00
56198;BME280;42700;42.524;12.052;2023-05-25T11:33:58;105344.50;;;28.60;100.00
56198;BME280;42700;42.524;12.052;2023-05-25T11:36:29;108360.97;;;29.32;100.00
56198;BME280;42700;42.524;12.052;2023-05-25T11:38:59;110078.22;;;29.77;100.00
56198;BME280;42700;42.524;12.052;2023-05-25T11:41:25;112074.03;;;30.53;100.00
56198;BME280;42700;42.524;12.052;2023-05-25T11:43:52;112327.81;;;30.87;100.00
56198;BME280;42700;42.524;12.052;2023-05-25T11:46:18;107852.19;;;29.98;100.00
56198;BME280;42700;42.524;12.052;2023-05-25T11:48:44;111361.91;;;31.31;100.00
56198;BME280;42700;42.524;12.052;2023-05-25T11:51:10;111335.66;;;31.81;100.00
56198;BME280;42700;42.524;12.052;2023-05-25T11:53:43;111750.13;;;32.18;100.00
56198;BME280;42700;42.524;12.052;2023-05-25T11:56:09;107092.50;;;31.12;100.00
56198;BME280;42700;42.524;12.052;2023-05-25T11:58:35;103459.91;;;30.22;93.35
56198;BME280;42700;42.524;12.052;2023-05-25T12:01:14;109410.09;;;32.19;100.00
56198;BME280;42700;42.524;12.052;2023-05-25T12:03:41;109218.56;;;32.39;100.00
56198;BME280;42700;42.524;12.052;2023-05-25T12:06:06;108007.88;;;32.11;93.59
56198;BME280;42700;42.524;12.052;2023-05-25T12:08:32;109664.97;;;32.75;99.20
56198;BME280;42700;42.524;12.052;2023-05-25T12:10:58;107794.63;;;32.36;91.09
56198;BME280;42700;42.524;12.052;2023-05-25T12:13:23;105183.22;;;31.81;84.78
56198;BME280;42700;42.524;12.052;2023-05-25T12:15:49;106880.97;;;32.41;90.56
56198;BME280;42700;42.524;12.052;2023-05-25T12:18:16;105697.81;;;32.11;90.72
56198;BME280;42700;42.524;12.052;2023-05-25T12:20:42;107657.09;;;32.49;92.39
56198;BME280;42700;42.524;12.052;2023-05-25T12:23:08;112266.63;;;33.58;100.00
56198;BME280;42700;42.524;12.052;2023-05-25T12:25:34;114851.47;;;33.86;100.00
56198;BME280;42700;42.524;12.052;2023-05-25T12:28:09;112807.00;;;33.09;100.00
56198;BME280;42700;42.524;12.052;2023-05-25T12:30:36;109902.47;;;32.08;92.96
56198;BME280;42700;42.524;12.052;2023-05-25T12:33:01;111649.44;;;32.70;92.72
56198;BME280;42700;42.524;12.052;2023-05-25T12:35:27;111287.25;;;32.83;93.61
56198;BME280;42700;42.524;12.052;2023-05-25T12:38:08;108344.38;;;32.18;87.93
56198;BME280;42700;42.524;12.052;2023-05-25T12:40:34;108892.72;;;32.61;89.38
56198;BME280;42700;42.524;12.052;2023-05-25T12:43:00;108707.31;;;32.81;100.00